METAR AND TAF INFORMATION
METAR FOR FAKN
ADDS - METARS form results

(0726 UTC 27 May 2019)
Data provider http://aviationweather.gov/metar/data/
 
METAR text: FAKN 270700Z AUTO 25003KT //// // ////// 14/08 Q1026
Conditions at: FAKN (KRUGER MPUMALANG, ZA) observed 0700 UTC 27 May 2019
Temperature: 14.0°C (57°F)
Dewpoint: 8.0°C (46°F) [RH = 67%]
Pressure (altimeter): 30.30 inches Hg (1026.0 mb)
Winds: from the WSW (250 degrees) at 3 MPH (3 knots; 1.5 m/s)
Visibility: missing
Ceiling: unknown
Clouds: missing
Weather: no significant weather observed at this time

METAR text: FAKN 270646Z AUTO 25003KT //// // ////// 14/08 Q1026
Conditions at: FAKN (KRUGER MPUMALANG, ZA) observed 0646 UTC 27 May 2019
Temperature: 14.0°C (57°F)
Dewpoint: 8.0°C (46°F) [RH = 67%]
Pressure (altimeter): 30.30 inches Hg (1026.0 mb)
Winds: from the WSW (250 degrees) at 3 MPH (3 knots; 1.5 m/s)
Visibility: missing
Ceiling: unknown
Clouds: missing
Weather: no significant weather observed at this time

Forecast for: FAKN (KRUGER MPUMALANG, ZA)
Text: TAF FAKN 270600Z 2707/2718 VRB03KT CAVOK TX22/2712Z TN13/2707Z
Forecast period: 0700 to 1100 UTC 27 May 2019
Forecast type: FROM: standard forecast or significant change
Winds: variable direction winds at 3 MPH (3 knots; 1.5 m/s)
Visibility: 6 or more miles 10+ km)
Ceiling: unknown
Clouds: missing
Weather: no significant weather forecast for this period
Text: BECMG 2711/2713 06007KT
Forecast period: 1100 to 1600 UTC 27 May 2019
Forecast type: BECOMING: Conditions expected to become as follows by 1300 UTC 27 May 2019
Winds: from the ENE (60 degrees) at 8 MPH (7 knots; 3.6 m/s)
Visibility: 6 or more miles 10+ km)
Ceiling: unknown
Clouds: missing
Weather: no significant weather forecast for this period
Text: BECMG 2716/2718 VRB03KT
Forecast period: 1600 to 1800 UTC 27 May 2019
Forecast type: BECOMING: Conditions expected to become as follows by 1800 UTC 27 May 2019
Winds: variable direction winds at 3 MPH (3 knots; 1.5 m/s)
Visibility: 6 or more miles 10+ km)
Ceiling: unknown
Clouds: missing
Weather: no significant weather forecast for this period

 AIRPORT MAP

 RUNWAY INFORMATION
Runway 05 Runway length 10171 ft Runway width 148 ft
Runway elevation 2825 ft Runway displaced threshold 1639 ft Runway heading 34
Runway 23 Runway length 10171 ft Runway width 148 ft
Runway elevation 2827 ft Runway displaced threshold 0 ft Runway heading 214

 AIRPORT FREQUENCIES
Type ARR Name APP Frequency 119.2 MHZ
Type TWR Name TWR Frequency 119.2 MHZ

 AIRPORT NEAR NAVIGATION AIDS
Type NDB Name Kruger Mpumalanga Frequency 405 KHZ



The South Africal Virtual Air Force